sensor_id;sensor_type;location;lat;lon;timestamp;P1;durP1;ratioP1;P2;durP2;ratioP2
32146;SDS011;32190;49.112;8.598;2023-09-08T00:04:54;2.00;;;0.85;;
32146;SDS011;32190;49.112;8.598;2023-09-08T00:11:01;1.33;;;1.33;;
32146;SDS011;32190;49.112;8.598;2023-09-08T00:17:00;1.38;;;1.27;;
32146;SDS011;32190;49.112;8.598;2023-09-08T00:23:01;2.00;;;1.13;;
32146;SDS011;32190;49.112;8.598;2023-09-08T00:29:03;2.17;;;1.25;;
32146;SDS011;32190;49.112;8.598;2023-09-08T00:35:19;1.30;;;1.02;;
32146;SDS011;32190;49.112;8.598;2023-09-08T00:41:26;1.13;;;1.13;;
32146;SDS011;32190;49.112;8.598;2023-09-08T00:47:19;1.55;;;1.45;;
32146;SDS011;32190;49.112;8.598;2023-09-08T00:53:17;1.23;;;1.23;;
32146;SDS011;32190;49.112;8.598;2023-09-08T00:59:32;1.50;;;1.40;;
32146;SDS011;32190;49.112;8.598;2023-09-08T01:05:36;1.13;;;1.13;;
32146;SDS011;32190;49.112;8.598;2023-09-08T01:11:40;1.48;;;1.17;;
32146;SDS011;32190;49.112;8.598;2023-09-08T01:18:09;1.47;;;1.30;;
32146;SDS011;32190;49.112;8.598;2023-09-08T01:30:26;1.33;;;1.23;;
32146;SDS011;32190;49.112;8.598;2023-09-08T01:36:36;1.30;;;1.20;;
32146;SDS011;32190;49.112;8.598;2023-09-08T01:42:27;1.55;;;1.45;;
32146;SDS011;32190;49.112;8.598;2023-09-08T01:54:51;1.13;;;1.02;;
32146;SDS011;32190;49.112;8.598;2023-09-08T02:00:56;1.52;;;1.42;;
32146;SDS011;32190;49.112;8.598;2023-09-08T02:07:25;0.98;;;0.98;;
32146;SDS011;32190;49.112;8.598;2023-09-08T02:13:34;1.75;;;1.65;;
32146;SDS011;32190;49.112;8.598;2023-09-08T02:19:27;1.20;;;1.10;;
32146;SDS011;32190;49.112;8.598;2023-09-08T02:25:23;1.70;;;1.60;;
32146;SDS011;32190;49.112;8.598;2023-09-08T02:31:19;1.58;;;1.48;;
32146;SDS011;32190;49.112;8.598;2023-09-08T02:37:25;1.95;;;1.77;;
32146;SDS011;32190;49.112;8.598;2023-09-08T02:43:23;1.42;;;1.33;;
32146;SDS011;32190;49.112;8.598;2023-09-08T02:49:26;1.92;;;1.70;;
32146;SDS011;32190;49.112;8.598;2023-09-08T03:02:12;1.52;;;1.42;;
32146;SDS011;32190;49.112;8.598;2023-09-08T03:08:24;1.50;;;1.40;;
32146;SDS011;32190;49.112;8.598;2023-09-08T03:14:22;1.60;;;1.33;;
32146;SDS011;32190;49.112;8.598;2023-09-08T03:20:22;1.60;;;1.50;;
32146;SDS011;32190;49.112;8.598;2023-09-08T03:26:23;1.75;;;1.65;;
32146;SDS011;32190;49.112;8.598;2023-09-08T03:32:32;1.43;;;1.37;;
32146;SDS011;32190;49.112;8.598;2023-09-08T03:38:44;1.60;;;1.48;;
32146;SDS011;32190;49.112;8.598;2023-09-08T03:51:19;1.45;;;1.35;;
32146;SDS011;32190;49.112;8.598;2023-09-08T03:57:22;1.17;;;1.17;;
32146;SDS011;32190;49.112;8.598;2023-09-08T04:03:21;1.38;;;1.30;;
32146;SDS011;32190;49.112;8.598;2023-09-08T04:15:17;1.17;;;1.15;;
32146;SDS011;32190;49.112;8.598;2023-09-08T04:21:13;1.40;;;1.30;;
32146;SDS011;32190;49.112;8.598;2023-09-08T04:27:14;1.40;;;1.30;;
32146;SDS011;32190;49.112;8.598;2023-09-08T04:33:10;1.25;;;1.20;;
32146;SDS011;32190;49.112;8.598;2023-09-08T04:39:06;1.55;;;1.40;;
32146;SDS011;32190;49.112;8.598;2023-09-08T04:45:17;1.40;;;1.30;;
32146;SDS011;32190;49.112;8.598;2023-09-08T04:51:18;1.83;;;1.70;;
32146;SDS011;32190;49.112;8.598;2023-09-08T04:57:16;1.55;;;1.45;;
32146;SDS011;32190;49.112;8.598;2023-09-08T05:03:13;1.60;;;1.50;;
32146;SDS011;32190;49.112;8.598;2023-09-08T05:09:05;1.77;;;1.67;;
32146;SDS011;32190;49.112;8.598;2023-09-08T05:15:06;2.13;;;1.92;;
32146;SDS011;32190;49.112;8.598;2023-09-08T05:21:07;1.67;;;1.58;;
32146;SDS011;32190;49.112;8.598;2023-09-08T05:26:58;2.00;;;1.67;;
32146;SDS011;32190;49.112;8.598;2023-09-08T05:33:04;1.83;;;1.73;;
32146;SDS011;32190;49.112;8.598;2023-09-08T05:39:16;1.92;;;1.70;;
32146;SDS011;32190;49.112;8.598;2023-09-08T05:45:35;1.23;;;1.17;;
32146;SDS011;32190;49.112;8.598;2023-09-08T05:51:48;2.15;;;1.80;;
32146;SDS011;32190;49.112;8.598;2023-09-08T05:58:07;1.67;;;1.58;;
32146;SDS011;32190;49.112;8.598;2023-09-08T06:04:20;2.60;;;1.92;;
32146;SDS011;32190;49.112;8.598;2023-09-08T06:10:16;1.40;;;1.30;;
32146;SDS011;32190;49.112;8.598;2023-09-08T06:16:09;2.25;;;2.05;;
32146;SDS011;32190;49.112;8.598;2023-09-08T06:28:17;1.58;;;1.40;;
32146;SDS011;32190;49.112;8.598;2023-09-08T06:34:13;1.77;;;1.67;;
32146;SDS011;32190;49.112;8.598;2023-09-08T06:40:29;1.80;;;1.52;;
32146;SDS011;32190;49.112;8.598;2023-09-08T06:46:31;3.00;;;1.80;;
32146;SDS011;32190;49.112;8.598;2023-09-08T06:59:07;1.73;;;1.63;;
32146;SDS011;32190;49.112;8.598;2023-09-08T07:05:45;1.48;;;1.33;;
32146;SDS011;32190;49.112;8.598;2023-09-08T07:11:42;1.48;;;1.38;;
32146;SDS011;32190;49.112;8.598;2023-09-08T07:17:42;1.80;;;1.48;;
32146;SDS011;32190;49.112;8.598;2023-09-08T07:23:41;1.58;;;1.48;;
32146;SDS011;32190;49.112;8.598;2023-09-08T07:29:44;1.52;;;1.42;;
32146;SDS011;32190;49.112;8.598;2023-09-08T07:35:42;2.17;;;1.73;;
32146;SDS011;32190;49.112;8.598;2023-09-08T07:41:45;1.38;;;1.27;;
32146;SDS011;32190;49.112;8.598;2023-09-08T07:47:47;2.58;;;1.55;;
32146;SDS011;32190;49.112;8.598;2023-09-08T07:53:43;1.60;;;1.50;;
32146;SDS011;32190;49.112;8.598;2023-09-08T07:59:46;2.80;;;1.45;;
32146;SDS011;32190;49.112;8.598;2023-09-08T08:05:49;1.88;;;1.77;;
32146;SDS011;32190;49.112;8.598;2023-09-08T08:11:40;5.10;;;2.55;;
32146;SDS011;32190;49.112;8.598;2023-09-08T08:17:34;2.47;;;2.30;;
32146;SDS011;32190;49.112;8.598;2023-09-08T08:29:45;2.78;;;2.47;;
32146;SDS011;32190;49.112;8.598;2023-09-08T08:35:40;1.60;;;1.50;;
32146;SDS011;32190;49.112;8.598;2023-09-08T08:42:08;2.45;;;2.25;;
32146;SDS011;32190;49.112;8.598;2023-09-08T08:48:09;2.55;;;2.35;;
32146;SDS011;32190;49.112;8.598;2023-09-08T08:54:03;2.20;;;1.90;;
32146;SDS011;32190;49.112;8.598;2023-09-08T09:00:11;2.30;;;2.00;;
32146;SDS011;32190;49.112;8.598;2023-09-08T09:06:11;2.58;;;2.30;;
32146;SDS011;32190;49.112;8.598;2023-09-08T09:12:05;2.42;;;2.25;;
32146;SDS011;32190;49.112;8.598;2023-09-08T09:18:10;2.75;;;2.58;;
32146;SDS011;32190;49.112;8.598;2023-09-08T09:24:15;2.80;;;2.60;;
32146;SDS011;32190;49.112;8.598;2023-09-08T09:30:24;3.17;;;2.88;;
32146;SDS011;32190;49.112;8.598;2023-09-08T09:36:35;3.22;;;3.03;;
32146;SDS011;32190;49.112;8.598;2023-09-08T09:42:35;2.78;;;2.58;;
32146;SDS011;32190;49.112;8.598;2023-09-08T09:48:40;3.75;;;2.28;;
32146;SDS011;32190;49.112;8.598;2023-09-08T09:54:33;2.57;;;2.37;;
32146;SDS011;32190;49.112;8.598;2023-09-08T10:00:30;2.58;;;2.38;;
32146;SDS011;32190;49.112;8.598;2023-09-08T10:06:23;3.95;;;2.92;;
32146;SDS011;32190;49.112;8.598;2023-09-08T10:18:32;2.50;;;2.30;;
32146;SDS011;32190;49.112;8.598;2023-09-08T10:24:28;2.70;;;2.47;;
32146;SDS011;32190;49.112;8.598;2023-09-08T10:30:30;2.25;;;2.15;;
32146;SDS011;32190;49.112;8.598;2023-09-08T10:36:31;2.85;;;2.65;;
32146;SDS011;32190;49.112;8.598;2023-09-08T10:42:27;2.90;;;2.60;;
32146;SDS011;32190;49.112;8.598;2023-09-08T10:48:46;2.30;;;2.07;;
32146;SDS011;32190;49.112;8.598;2023-09-08T10:54:58;2.22;;;2.13;;
32146;SDS011;32190;49.112;8.598;2023-09-08T11:00:51;3.28;;;3.08;;
32146;SDS011;32190;49.112;8.598;2023-09-08T11:06:53;2.85;;;2.65;;
32146;SDS011;32190;49.112;8.598;2023-09-08T11:12:54;3.05;;;2.75;;
32146;SDS011;32190;49.112;8.598;2023-09-08T11:18:47;3.03;;;2.83;;
32146;SDS011;32190;49.112;8.598;2023-09-08T11:24:45;3.23;;;2.93;;
32146;SDS011;32190;49.112;8.598;2023-09-08T11:37:00;2.10;;;2.00;;
32146;SDS011;32190;49.112;8.598;2023-09-08T11:42:53;2.25;;;2.15;;
32146;SDS011;32190;49.112;8.598;2023-09-08T11:48:49;2.70;;;2.50;;
32146;SDS011;32190;49.112;8.598;2023-09-08T11:54:42;2.13;;;2.03;;
32146;SDS011;32190;49.112;8.598;2023-09-08T12:00:45;2.28;;;2.17;;
32146;SDS011;32190;49.112;8.598;2023-09-08T12:06:52;2.10;;;2.00;;
32146;SDS011;32190;49.112;8.598;2023-09-08T12:12:54;2.25;;;2.15;;
32146;SDS011;32190;49.112;8.598;2023-09-08T12:18:55;1.80;;;1.70;;
32146;SDS011;32190;49.112;8.598;2023-09-08T12:30:55;2.00;;;1.90;;
32146;SDS011;32190;49.112;8.598;2023-09-08T12:43:40;2.60;;;2.40;;
32146;SDS011;32190;49.112;8.598;2023-09-08T13:09:46;2.30;;;2.10;;
32146;SDS011;32190;49.112;8.598;2023-09-08T13:16:04;2.30;;;2.20;;
32146;SDS011;32190;49.112;8.598;2023-09-08T13:28:55;1.88;;;1.77;;
32146;SDS011;32190;49.112;8.598;2023-09-08T13:35:32;1.75;;;1.65;;
32146;SDS011;32190;49.112;8.598;2023-09-08T13:42:17;2.72;;;2.53;;
32146;SDS011;32190;49.112;8.598;2023-09-08T13:48:26;1.92;;;1.83;;
32146;SDS011;32190;49.112;8.598;2023-09-08T14:01:46;1.90;;;1.80;;
32146;SDS011;32190;49.112;8.598;2023-09-08T14:14:51;1.98;;;1.88;;
32146;SDS011;32190;49.112;8.598;2023-09-08T14:20:47;2.28;;;2.17;;
32146;SDS011;32190;49.112;8.598;2023-09-08T14:26:46;2.08;;;1.92;;
32146;SDS011;32190;49.112;8.598;2023-09-08T14:32:48;2.17;;;1.98;;
32146;SDS011;32190;49.112;8.598;2023-09-08T14:38:53;2.42;;;2.30;;
32146;SDS011;32190;49.112;8.598;2023-09-08T14:45:11;2.50;;;2.40;;
32146;SDS011;32190;49.112;8.598;2023-09-08T14:58:39;1.85;;;1.75;;
32146;SDS011;32190;49.112;8.598;2023-09-08T15:10:46;2.05;;;1.92;;
32146;SDS011;32190;49.112;8.598;2023-09-08T15:16:48;1.88;;;1.75;;
32146;SDS011;32190;49.112;8.598;2023-09-08T15:23:10;2.72;;;2.53;;
32146;SDS011;32190;49.112;8.598;2023-09-08T15:29:13;2.10;;;2.00;;
32146;SDS011;32190;49.112;8.598;2023-09-08T15:35:10;1.63;;;1.52;;
32146;SDS011;32190;49.112;8.598;2023-09-08T15:47:07;1.70;;;1.60;;
32146;SDS011;32190;49.112;8.598;2023-09-08T15:53:02;1.58;;;1.48;;
32146;SDS011;32190;49.112;8.598;2023-09-08T15:59:03;1.15;;;1.15;;
32146;SDS011;32190;49.112;8.598;2023-09-08T16:05:02;1.73;;;1.63;;
32146;SDS011;32190;49.112;8.598;2023-09-08T16:10:55;1.10;;;1.10;;
32146;SDS011;32190;49.112;8.598;2023-09-08T16:16:48;1.50;;;1.40;;
32146;SDS011;32190;49.112;8.598;2023-09-08T16:22:45;1.10;;;1.10;;
32146;SDS011;32190;49.112;8.598;2023-09-08T16:28:44;1.30;;;1.30;;
32146;SDS011;32190;49.112;8.598;2023-09-08T16:34:47;1.15;;;1.15;;
32146;SDS011;32190;49.112;8.598;2023-09-08T16:41:12;1.33;;;1.33;;
32146;SDS011;32190;49.112;8.598;2023-09-08T16:53:25;1.48;;;1.45;;
32146;SDS011;32190;49.112;8.598;2023-09-08T16:59:34;1.48;;;1.38;;
32146;SDS011;32190;49.112;8.598;2023-09-08T17:05:45;1.08;;;1.08;;
32146;SDS011;32190;49.112;8.598;2023-09-08T17:11:44;1.50;;;1.45;;
32146;SDS011;32190;49.112;8.598;2023-09-08T17:17:41;1.50;;;1.33;;
32146;SDS011;32190;49.112;8.598;2023-09-08T17:24:01;1.60;;;1.50;;
32146;SDS011;32190;49.112;8.598;2023-09-08T17:30:07;0.90;;;0.90;;
32146;SDS011;32190;49.112;8.598;2023-09-08T17:36:29;1.60;;;1.50;;
32146;SDS011;32190;49.112;8.598;2023-09-08T17:42:37;1.38;;;1.33;;
32146;SDS011;32190;49.112;8.598;2023-09-08T17:48:49;1.65;;;1.40;;
32146;SDS011;32190;49.112;8.598;2023-09-08T17:54:50;1.70;;;1.60;;
32146;SDS011;32190;49.112;8.598;2023-09-08T18:00:51;1.42;;;1.33;;
32146;SDS011;32190;49.112;8.598;2023-09-08T18:07:01;1.52;;;1.42;;
32146;SDS011;32190;49.112;8.598;2023-09-08T18:13:13;2.17;;;2.08;;
32146;SDS011;32190;49.112;8.598;2023-09-08T18:19:16;2.50;;;2.30;;
32146;SDS011;32190;49.112;8.598;2023-09-08T18:25:17;1.95;;;1.85;;
32146;SDS011;32190;49.112;8.598;2023-09-08T18:31:23;2.33;;;2.22;;
32146;SDS011;32190;49.112;8.598;2023-09-08T18:37:21;2.88;;;2.47;;
32146;SDS011;32190;49.112;8.598;2023-09-08T18:43:14;1.33;;;1.33;;
32146;SDS011;32190;49.112;8.598;2023-09-08T18:49:39;1.88;;;1.77;;
32146;SDS011;32190;49.112;8.598;2023-09-08T18:55:45;2.30;;;2.10;;
32146;SDS011;32190;49.112;8.598;2023-09-08T19:01:41;1.98;;;1.88;;
32146;SDS011;32190;49.112;8.598;2023-09-08T19:07:43;2.30;;;2.20;;
32146;SDS011;32190;49.112;8.598;2023-09-08T19:13:36;1.98;;;1.88;;
32146;SDS011;32190;49.112;8.598;2023-09-08T19:19:34;1.95;;;1.85;;
32146;SDS011;32190;49.112;8.598;2023-09-08T19:25:30;2.47;;;2.27;;
32146;SDS011;32190;49.112;8.598;2023-09-08T19:31:25;2.15;;;2.05;;
32146;SDS011;32190;49.112;8.598;2023-09-08T19:37:15;2.22;;;2.03;;
32146;SDS011;32190;49.112;8.598;2023-09-08T19:43:08;2.25;;;2.10;;
32146;SDS011;32190;49.112;8.598;2023-09-08T19:49:04;2.35;;;2.25;;
32146;SDS011;32190;49.112;8.598;2023-09-08T19:54:54;2.58;;;2.15;;
32146;SDS011;32190;49.112;8.598;2023-09-08T20:00:47;2.42;;;2.22;;
32146;SDS011;32190;49.112;8.598;2023-09-08T20:06:42;1.90;;;1.80;;
32146;SDS011;32190;49.112;8.598;2023-09-08T20:12:48;2.63;;;2.42;;
32146;SDS011;32190;49.112;8.598;2023-09-08T20:18:42;2.47;;;2.33;;
32146;SDS011;32190;49.112;8.598;2023-09-08T20:24:37;2.60;;;2.40;;
32146;SDS011;32190;49.112;8.598;2023-09-08T20:30:31;3.80;;;2.15;;
32146;SDS011;32190;49.112;8.598;2023-09-08T20:36:30;7.03;;;1.83;;
32146;SDS011;32190;49.112;8.598;2023-09-08T20:42:21;2.00;;;1.90;;
32146;SDS011;32190;49.112;8.598;2023-09-08T20:48:16;1.70;;;1.60;;
32146;SDS011;32190;49.112;8.598;2023-09-08T20:54:14;1.67;;;1.58;;
32146;SDS011;32190;49.112;8.598;2023-09-08T21:00:16;1.90;;;1.80;;
32146;SDS011;32190;49.112;8.598;2023-09-08T21:06:07;1.83;;;1.73;;
32146;SDS011;32190;49.112;8.598;2023-09-08T21:12:02;1.55;;;1.40;;
32146;SDS011;32190;49.112;8.598;2023-09-08T21:18:02;2.05;;;1.90;;
32146;SDS011;32190;49.112;8.598;2023-09-08T21:23:53;2.13;;;2.00;;
32146;SDS011;32190;49.112;8.598;2023-09-08T21:29:46;2.45;;;2.28;;
32146;SDS011;32190;49.112;8.598;2023-09-08T21:35:48;2.22;;;2.05;;
32146;SDS011;32190;49.112;8.598;2023-09-08T21:41:39;1.73;;;1.58;;
32146;SDS011;32190;49.112;8.598;2023-09-08T21:47:33;1.52;;;1.40;;
32146;SDS011;32190;49.112;8.598;2023-09-08T21:53:26;1.40;;;1.30;;
32146;SDS011;32190;49.112;8.598;2023-09-08T21:59:16;1.40;;;1.30;;
32146;SDS011;32190;49.112;8.598;2023-09-08T22:05:10;1.77;;;1.67;;
32146;SDS011;32190;49.112;8.598;2023-09-08T22:11:05;1.60;;;1.50;;
32146;SDS011;32190;49.112;8.598;2023-09-08T22:16:58;2.50;;;1.63;;
32146;SDS011;32190;49.112;8.598;2023-09-08T22:22:50;1.63;;;1.52;;
32146;SDS011;32190;49.112;8.598;2023-09-08T22:28:46;2.00;;;1.90;;
32146;SDS011;32190;49.112;8.598;2023-09-08T22:34:37;2.67;;;2.47;;
32146;SDS011;32190;49.112;8.598;2023-09-08T22:40:28;1.60;;;1.50;;
32146;SDS011;32190;49.112;8.598;2023-09-08T22:46:19;2.20;;;2.10;;
32146;SDS011;32190;49.112;8.598;2023-09-08T22:52:12;1.70;;;1.60;;
32146;SDS011;32190;49.112;8.598;2023-09-08T22:58:03;2.20;;;2.05;;
32146;SDS011;32190;49.112;8.598;2023-09-08T23:03:56;2.08;;;1.98;;
32146;SDS011;32190;49.112;8.598;2023-09-08T23:09:50;2.00;;;1.90;;
32146;SDS011;32190;49.112;8.598;2023-09-08T23:15:41;2.30;;;2.10;;
32146;SDS011;32190;49.112;8.598;2023-09-08T23:21:35;2.30;;;2.10;;
32146;SDS011;32190;49.112;8.598;2023-09-08T23:27:28;2.00;;;1.73;;
32146;SDS011;32190;49.112;8.598;2023-09-08T23:33:27;2.13;;;1.92;;
32146;SDS011;32190;49.112;8.598;2023-09-08T23:39:20;1.85;;;1.75;;
32146;SDS011;32190;49.112;8.598;2023-09-08T23:45:16;1.98;;;1.83;;
32146;SDS011;32190;49.112;8.598;2023-09-08T23:51:10;2.13;;;2.03;;
32146;SDS011;32190;49.112;8.598;2023-09-08T23:57:04;2.08;;;1.98;;
